sensor_id;sensor_type;location;lat;lon;timestamp;P1;durP1;ratioP1;P2;durP2;ratioP2
81807;SDS011;71241;13.676;100.700;2023-08-06T00:01:56;8.18;;;3.67;;
81807;SDS011;71241;13.676;100.700;2023-08-06T00:04:29;5.75;;;4.53;;
81807;SDS011;71241;13.676;100.700;2023-08-06T00:07:00;7.53;;;4.38;;
81807;SDS011;71241;13.676;100.700;2023-08-06T00:09:32;5.32;;;4.25;;
81807;SDS011;71241;13.676;100.700;2023-08-06T00:12:03;8.55;;;3.70;;
81807;SDS011;71241;13.676;100.700;2023-08-06T00:14:36;6.57;;;5.15;;
81807;SDS011;71241;13.676;100.700;2023-08-06T00:17:07;5.70;;;3.63;;
81807;SDS011;71241;13.676;100.700;2023-08-06T00:19:38;6.20;;;4.28;;
81807;SDS011;71241;13.676;100.700;2023-08-06T00:22:09;9.10;;;3.47;;
81807;SDS011;71241;13.676;100.700;2023-08-06T00:24:40;9.65;;;8.85;;
81807;SDS011;71241;13.676;100.700;2023-08-06T00:27:11;6.43;;;2.97;;
81807;SDS011;71241;13.676;100.700;2023-08-06T00:35:08;6.78;;;3.03;;
81807;SDS011;71241;13.676;100.700;2023-08-06T00:37:40;5.20;;;2.65;;
81807;SDS011;71241;13.676;100.700;2023-08-06T00:40:11;16.05;;;14.70;;
81807;SDS011;71241;13.676;100.700;2023-08-06T00:42:42;15.35;;;14.43;;
81807;SDS011;71241;13.676;100.700;2023-08-06T00:45:16;23.75;;;22.23;;
81807;SDS011;71241;13.676;100.700;2023-08-06T00:47:47;15.98;;;15.07;;
81807;SDS011;71241;13.676;100.700;2023-08-06T00:50:18;14.88;;;13.80;;
81807;SDS011;71241;13.676;100.700;2023-08-06T00:52:51;5.57;;;4.15;;
81807;SDS011;71241;13.676;100.700;2023-08-06T00:55:23;8.15;;;4.75;;
81807;SDS011;71241;13.676;100.700;2023-08-06T00:57:54;5.07;;;4.28;;
81807;SDS011;71241;13.676;100.700;2023-08-06T01:00:27;6.30;;;4.78;;
81807;SDS011;71241;13.676;100.700;2023-08-06T01:02:59;4.80;;;2.42;;
81807;SDS011;71241;13.676;100.700;2023-08-06T01:05:30;5.78;;;3.72;;
81807;SDS011;71241;13.676;100.700;2023-08-06T01:08:09;5.38;;;2.70;;
81807;SDS011;71241;13.676;100.700;2023-08-06T01:13:22;3.10;;;1.90;;
81807;SDS011;71241;13.676;100.700;2023-08-06T01:15:59;3.42;;;2.28;;
81807;SDS011;71241;13.676;100.700;2023-08-06T01:18:31;8.93;;;2.97;;
81807;SDS011;71241;13.676;100.700;2023-08-06T01:21:03;4.72;;;1.63;;
81807;SDS011;71241;13.676;100.700;2023-08-06T01:23:34;6.05;;;2.38;;
81807;SDS011;71241;13.676;100.700;2023-08-06T01:26:08;3.38;;;2.00;;
81807;SDS011;71241;13.676;100.700;2023-08-06T01:28:45;4.50;;;1.92;;
81807;SDS011;71241;13.676;100.700;2023-08-06T01:31:22;8.07;;;2.15;;
81807;SDS011;71241;13.676;100.700;2023-08-06T01:33:57;11.98;;;10.95;;
81807;SDS011;71241;13.676;100.700;2023-08-06T01:36:30;6.78;;;4.28;;
81807;SDS011;71241;13.676;100.700;2023-08-06T01:39:02;5.28;;;2.75;;
81807;SDS011;71241;13.676;100.700;2023-08-06T01:41:33;8.25;;;2.83;;
81807;SDS011;71241;13.676;100.700;2023-08-06T01:44:05;5.85;;;2.83;;
81807;SDS011;71241;13.676;100.700;2023-08-06T01:46:37;5.82;;;2.22;;
81807;SDS011;71241;13.676;100.700;2023-08-06T01:49:07;7.25;;;3.05;;
81807;SDS011;71241;13.676;100.700;2023-08-06T01:51:41;7.78;;;2.90;;
81807;SDS011;71241;13.676;100.700;2023-08-06T01:54:12;5.45;;;2.80;;
81807;SDS011;71241;13.676;100.700;2023-08-06T01:56:43;10.70;;;3.03;;
81807;SDS011;71241;13.676;100.700;2023-08-06T01:59:14;10.63;;;2.97;;
81807;SDS011;71241;13.676;100.700;2023-08-06T02:01:48;6.72;;;2.50;;
81807;SDS011;71241;13.676;100.700;2023-08-06T02:04:20;7.70;;;2.88;;
81807;SDS011;71241;13.676;100.700;2023-08-06T02:06:53;4.97;;;2.53;;
81807;SDS011;71241;13.676;100.700;2023-08-06T02:09:24;5.13;;;2.47;;
81807;SDS011;71241;13.676;100.700;2023-08-06T02:11:55;8.15;;;3.20;;
81807;SDS011;71241;13.676;100.700;2023-08-06T02:14:26;5.53;;;2.40;;
81807;SDS011;71241;13.676;100.700;2023-08-06T02:16:57;8.32;;;2.58;;
81807;SDS011;71241;13.676;100.700;2023-08-06T02:19:28;4.25;;;2.88;;
81807;SDS011;71241;13.676;100.700;2023-08-06T02:22:01;9.98;;;2.47;;
81807;SDS011;71241;13.676;100.700;2023-08-06T02:24:33;9.32;;;2.63;;
81807;SDS011;71241;13.676;100.700;2023-08-06T02:27:04;3.65;;;2.20;;
81807;SDS011;71241;13.676;100.700;2023-08-06T02:29:35;7.15;;;3.25;;
81807;SDS011;71241;13.676;100.700;2023-08-06T02:32:07;5.30;;;2.35;;
81807;SDS011;71241;13.676;100.700;2023-08-06T02:34:38;6.95;;;2.50;;
81807;SDS011;71241;13.676;100.700;2023-08-06T02:37:11;9.30;;;2.85;;
81807;SDS011;71241;13.676;100.700;2023-08-06T02:39:42;6.65;;;2.67;;
81807;SDS011;71241;13.676;100.700;2023-08-06T02:42:13;6.32;;;3.50;;
81807;SDS011;71241;13.676;100.700;2023-08-06T02:44:44;8.88;;;3.42;;
81807;SDS011;71241;13.676;100.700;2023-08-06T02:47:15;7.47;;;2.72;;
81807;SDS011;71241;13.676;100.700;2023-08-06T02:49:46;6.85;;;2.35;;
81807;SDS011;71241;13.676;100.700;2023-08-06T02:52:19;4.57;;;3.53;;
81807;SDS011;71241;13.676;100.700;2023-08-06T02:54:50;8.48;;;3.35;;
81807;SDS011;71241;13.676;100.700;2023-08-06T02:57:21;6.97;;;2.90;;
81807;SDS011;71241;13.676;100.700;2023-08-06T02:59:52;6.63;;;3.10;;
81807;SDS011;71241;13.676;100.700;2023-08-06T03:02:23;6.30;;;2.88;;
81807;SDS011;71241;13.676;100.700;2023-08-06T03:04:54;6.15;;;2.50;;
81807;SDS011;71241;13.676;100.700;2023-08-06T03:07:27;6.65;;;2.33;;
81807;SDS011;71241;13.676;100.700;2023-08-06T03:09:58;8.65;;;2.55;;
81807;SDS011;71241;13.676;100.700;2023-08-06T03:12:31;8.05;;;4.30;;
81807;SDS011;71241;13.676;100.700;2023-08-06T03:15:02;8.68;;;5.43;;
81807;SDS011;71241;13.676;100.700;2023-08-06T03:17:33;5.25;;;4.65;;
81807;SDS011;71241;13.676;100.700;2023-08-06T03:20:05;5.07;;;2.17;;
81807;SDS011;71241;13.676;100.700;2023-08-06T03:22:38;4.40;;;2.53;;
81807;SDS011;71241;13.676;100.700;2023-08-06T03:25:10;3.85;;;2.33;;
81807;SDS011;71241;13.676;100.700;2023-08-06T03:27:41;11.77;;;11.02;;
81807;SDS011;71241;13.676;100.700;2023-08-06T03:30:12;5.82;;;4.95;;
81807;SDS011;71241;13.676;100.700;2023-08-06T03:32:44;3.90;;;3.08;;
81807;SDS011;71241;13.676;100.700;2023-08-06T03:35:16;6.80;;;3.08;;
81807;SDS011;71241;13.676;100.700;2023-08-06T03:37:48;7.40;;;3.25;;
81807;SDS011;71241;13.676;100.700;2023-08-06T03:40:19;3.67;;;2.70;;
81807;SDS011;71241;13.676;100.700;2023-08-06T03:42:50;5.75;;;2.53;;
81807;SDS011;71241;13.676;100.700;2023-08-06T03:45:21;6.95;;;2.88;;
81807;SDS011;71241;13.676;100.700;2023-08-06T03:47:51;6.97;;;2.30;;
81807;SDS011;71241;13.676;100.700;2023-08-06T03:50:22;2.53;;;1.80;;
81807;SDS011;71241;13.676;100.700;2023-08-06T03:52:55;5.65;;;2.10;;
81807;SDS011;71241;13.676;100.700;2023-08-06T03:55:25;4.22;;;2.20;;
81807;SDS011;71241;13.676;100.700;2023-08-06T03:57:56;8.48;;;2.97;;
81807;SDS011;71241;13.676;100.700;2023-08-06T04:00:27;8.73;;;3.17;;
81807;SDS011;71241;13.676;100.700;2023-08-06T04:02:57;8.43;;;2.55;;
81807;SDS011;71241;13.676;100.700;2023-08-06T04:05:30;6.15;;;2.72;;
81807;SDS011;71241;13.676;100.700;2023-08-06T04:08:03;9.85;;;2.78;;
81807;SDS011;71241;13.676;100.700;2023-08-06T04:10:34;3.13;;;2.65;;
81807;SDS011;71241;13.676;100.700;2023-08-06T04:13:05;3.95;;;2.00;;
81807;SDS011;71241;13.676;100.700;2023-08-06T04:15:35;5.45;;;2.40;;
81807;SDS011;71241;13.676;100.700;2023-08-06T04:18:06;5.68;;;2.17;;
81807;SDS011;71241;13.676;100.700;2023-08-06T04:20:42;7.53;;;2.88;;
81807;SDS011;71241;13.676;100.700;2023-08-06T04:23:15;3.63;;;2.70;;
81807;SDS011;71241;13.676;100.700;2023-08-06T04:28:16;4.20;;;2.40;;
81807;SDS011;71241;13.676;100.700;2023-08-06T04:30:46;5.55;;;2.65;;
81807;SDS011;71241;13.676;100.700;2023-08-06T04:33:17;4.22;;;2.33;;
81807;SDS011;71241;13.676;100.700;2023-08-06T04:35:53;6.68;;;4.88;;
81807;SDS011;71241;13.676;100.700;2023-08-06T04:38:27;7.63;;;3.47;;
81807;SDS011;71241;13.676;100.700;2023-08-06T04:40:58;5.90;;;2.30;;
81807;SDS011;71241;13.676;100.700;2023-08-06T04:43:29;3.58;;;1.95;;
81807;SDS011;71241;13.676;100.700;2023-08-06T04:46:00;5.57;;;2.38;;
81807;SDS011;71241;13.676;100.700;2023-08-06T04:48:30;5.50;;;2.42;;
81807;SDS011;71241;13.676;100.700;2023-08-06T04:51:01;5.35;;;2.95;;
81807;SDS011;71241;13.676;100.700;2023-08-06T04:53:34;6.88;;;3.38;;
81807;SDS011;71241;13.676;100.700;2023-08-06T04:56:05;3.78;;;3.30;;
81807;SDS011;71241;13.676;100.700;2023-08-06T04:58:36;8.18;;;2.65;;
81807;SDS011;71241;13.676;100.700;2023-08-06T05:01:07;3.55;;;2.97;;
81807;SDS011;71241;13.676;100.700;2023-08-06T05:03:38;8.38;;;2.25;;
81807;SDS011;71241;13.676;100.700;2023-08-06T05:06:09;5.85;;;2.60;;
81807;SDS011;71241;13.676;100.700;2023-08-06T05:08:41;7.63;;;2.55;;
81807;SDS011;71241;13.676;100.700;2023-08-06T05:11:12;7.53;;;4.55;;
81807;SDS011;71241;13.676;100.700;2023-08-06T05:13:42;5.47;;;3.97;;
81807;SDS011;71241;13.676;100.700;2023-08-06T05:16:13;5.72;;;4.03;;
81807;SDS011;71241;13.676;100.700;2023-08-06T05:18:44;4.55;;;3.85;;
81807;SDS011;71241;13.676;100.700;2023-08-06T05:21:15;3.58;;;2.05;;
81807;SDS011;71241;13.676;100.700;2023-08-06T05:23:48;5.20;;;1.80;;
81807;SDS011;71241;13.676;100.700;2023-08-06T05:26:19;4.03;;;2.10;;
81807;SDS011;71241;13.676;100.700;2023-08-06T05:28:50;5.82;;;2.33;;
81807;SDS011;71241;13.676;100.700;2023-08-06T05:31:21;4.43;;;2.58;;
81807;SDS011;71241;13.676;100.700;2023-08-06T05:33:52;8.55;;;2.60;;
81807;SDS011;71241;13.676;100.700;2023-08-06T05:36:23;6.13;;;2.95;;
81807;SDS011;71241;13.676;100.700;2023-08-06T05:38:58;7.10;;;2.88;;
81807;SDS011;71241;13.676;100.700;2023-08-06T05:41:29;5.78;;;2.95;;
81807;SDS011;71241;13.676;100.700;2023-08-06T05:43:59;5.00;;;3.15;;
81807;SDS011;71241;13.676;100.700;2023-08-06T05:46:31;5.40;;;2.65;;
81807;SDS011;71241;13.676;100.700;2023-08-06T05:49:01;7.70;;;3.00;;
81807;SDS011;71241;13.676;100.700;2023-08-06T05:51:32;5.65;;;2.85;;
81807;SDS011;71241;13.676;100.700;2023-08-06T05:54:05;4.90;;;3.13;;
81807;SDS011;71241;13.676;100.700;2023-08-06T05:56:36;5.13;;;2.70;;
81807;SDS011;71241;13.676;100.700;2023-08-06T05:59:07;7.30;;;3.20;;
81807;SDS011;71241;13.676;100.700;2023-08-06T06:01:38;5.18;;;2.70;;
81807;SDS011;71241;13.676;100.700;2023-08-06T06:04:08;5.53;;;3.45;;
81807;SDS011;71241;13.676;100.700;2023-08-06T06:06:39;3.85;;;3.08;;
81807;SDS011;71241;13.676;100.700;2023-08-06T06:09:12;4.82;;;3.22;;
81807;SDS011;71241;13.676;100.700;2023-08-06T06:14:13;4.50;;;3.20;;
81807;SDS011;71241;13.676;100.700;2023-08-06T06:16:43;6.32;;;3.33;;
81807;SDS011;71241;13.676;100.700;2023-08-06T06:19:14;6.88;;;3.08;;
81807;SDS011;71241;13.676;100.700;2023-08-06T06:21:45;6.63;;;3.05;;
81807;SDS011;71241;13.676;100.700;2023-08-06T06:24:18;7.40;;;3.15;;
81807;SDS011;71241;13.676;100.700;2023-08-06T06:26:49;6.22;;;3.00;;
81807;SDS011;71241;13.676;100.700;2023-08-06T06:29:19;4.53;;;2.88;;
81807;SDS011;71241;13.676;100.700;2023-08-06T06:31:50;6.90;;;3.17;;
81807;SDS011;71241;13.676;100.700;2023-08-06T06:34:21;6.22;;;4.07;;
81807;SDS011;71241;13.676;100.700;2023-08-06T06:36:53;4.88;;;3.10;;
81807;SDS011;71241;13.676;100.700;2023-08-06T06:39:25;7.60;;;4.90;;
81807;SDS011;71241;13.676;100.700;2023-08-06T06:41:56;6.78;;;3.50;;
81807;SDS011;71241;13.676;100.700;2023-08-06T06:44:27;7.95;;;3.55;;
81807;SDS011;71241;13.676;100.700;2023-08-06T06:46:58;6.80;;;3.75;;
81807;SDS011;71241;13.676;100.700;2023-08-06T06:49:29;8.25;;;4.50;;
81807;SDS011;71241;13.676;100.700;2023-08-06T06:52:00;6.45;;;3.10;;
81807;SDS011;71241;13.676;100.700;2023-08-06T06:54:33;5.78;;;3.42;;
81807;SDS011;71241;13.676;100.700;2023-08-06T06:57:04;8.35;;;3.97;;
81807;SDS011;71241;13.676;100.700;2023-08-06T06:59:35;4.88;;;3.53;;
81807;SDS011;71241;13.676;100.700;2023-08-06T07:02:07;6.40;;;3.30;;
81807;SDS011;71241;13.676;100.700;2023-08-06T07:04:38;8.95;;;3.28;;
81807;SDS011;71241;13.676;100.700;2023-08-06T07:07:10;6.50;;;3.65;;
81807;SDS011;71241;13.676;100.700;2023-08-06T07:09:45;5.70;;;3.42;;
81807;SDS011;71241;13.676;100.700;2023-08-06T07:12:16;8.30;;;3.55;;
81807;SDS011;71241;13.676;100.700;2023-08-06T07:14:48;11.63;;;3.55;;
81807;SDS011;71241;13.676;100.700;2023-08-06T07:17:19;7.43;;;2.88;;
81807;SDS011;71241;13.676;100.700;2023-08-06T07:19:50;7.75;;;5.65;;
81807;SDS011;71241;13.676;100.700;2023-08-06T07:22:21;8.93;;;6.03;;
81807;SDS011;71241;13.676;100.700;2023-08-06T07:24:54;5.13;;;3.00;;
81807;SDS011;71241;13.676;100.700;2023-08-06T07:27:25;8.82;;;2.72;;
81807;SDS011;71241;13.676;100.700;2023-08-06T07:29:56;7.38;;;3.42;;
81807;SDS011;71241;13.676;100.700;2023-08-06T07:32:27;5.22;;;3.05;;
81807;SDS011;71241;13.676;100.700;2023-08-06T07:34:58;9.70;;;3.47;;
81807;SDS011;71241;13.676;100.700;2023-08-06T07:37:30;7.78;;;3.20;;
81807;SDS011;71241;13.676;100.700;2023-08-06T07:40:02;4.57;;;2.97;;
81807;SDS011;71241;13.676;100.700;2023-08-06T07:42:34;6.55;;;3.00;;
81807;SDS011;71241;13.676;100.700;2023-08-06T07:45:05;11.60;;;3.17;;
81807;SDS011;71241;13.676;100.700;2023-08-06T07:47:38;5.72;;;2.67;;
81807;SDS011;71241;13.676;100.700;2023-08-06T07:50:09;8.05;;;2.70;;
81807;SDS011;71241;13.676;100.700;2023-08-06T07:52:40;5.13;;;2.40;;
81807;SDS011;71241;13.676;100.700;2023-08-06T07:55:14;10.32;;;3.05;;
81807;SDS011;71241;13.676;100.700;2023-08-06T07:57:47;8.27;;;2.70;;
81807;SDS011;71241;13.676;100.700;2023-08-06T08:00:18;9.75;;;3.00;;
81807;SDS011;71241;13.676;100.700;2023-08-06T08:02:49;8.38;;;3.17;;
81807;SDS011;71241;13.676;100.700;2023-08-06T08:05:20;6.25;;;2.55;;
81807;SDS011;71241;13.676;100.700;2023-08-06T08:07:51;5.22;;;2.38;;
81807;SDS011;71241;13.676;100.700;2023-08-06T08:10:24;10.02;;;8.80;;
81807;SDS011;71241;13.676;100.700;2023-08-06T08:12:55;6.75;;;2.58;;
81807;SDS011;71241;13.676;100.700;2023-08-06T08:15:27;6.53;;;2.72;;
81807;SDS011;71241;13.676;100.700;2023-08-06T08:20:28;6.97;;;2.88;;
81807;SDS011;71241;13.676;100.700;2023-08-06T08:23:02;9.32;;;2.97;;
81807;SDS011;71241;13.676;100.700;2023-08-06T08:25:35;8.45;;;2.35;;
81807;SDS011;71241;13.676;100.700;2023-08-06T08:28:06;5.50;;;2.15;;
81807;SDS011;71241;13.676;100.700;2023-08-06T08:30:37;7.75;;;2.60;;
81807;SDS011;71241;13.676;100.700;2023-08-06T08:33:09;8.57;;;2.50;;
81807;SDS011;71241;13.676;100.700;2023-08-06T08:35:40;6.70;;;2.50;;
81807;SDS011;71241;13.676;100.700;2023-08-06T08:38:11;5.25;;;3.05;;
81807;SDS011;71241;13.676;100.700;2023-08-06T08:40:45;7.68;;;2.53;;
81807;SDS011;71241;13.676;100.700;2023-08-06T08:43:16;6.05;;;2.47;;
81807;SDS011;71241;13.676;100.700;2023-08-06T08:45:49;7.30;;;2.67;;
81807;SDS011;71241;13.676;100.700;2023-08-06T08:48:21;4.53;;;2.20;;
81807;SDS011;71241;13.676;100.700;2023-08-06T08:50:52;8.90;;;3.75;;
81807;SDS011;71241;13.676;100.700;2023-08-06T08:53:23;6.20;;;2.13;;
81807;SDS011;71241;13.676;100.700;2023-08-06T08:55:56;6.10;;;2.53;;
81807;SDS011;71241;13.676;100.700;2023-08-06T08:58:27;6.85;;;3.13;;
81807;SDS011;71241;13.676;100.700;2023-08-06T09:01:01;7.32;;;2.63;;
81807;SDS011;71241;13.676;100.700;2023-08-06T09:03:32;8.35;;;2.95;;
81807;SDS011;71241;13.676;100.700;2023-08-06T09:06:03;9.63;;;3.50;;
81807;SDS011;71241;13.676;100.700;2023-08-06T09:08:36;10.63;;;2.17;;
81807;SDS011;71241;13.676;100.700;2023-08-06T09:11:10;8.18;;;2.95;;
81807;SDS011;71241;13.676;100.700;2023-08-06T09:13:42;6.47;;;2.50;;
81807;SDS011;71241;13.676;100.700;2023-08-06T09:16:13;6.53;;;2.28;;
81807;SDS011;71241;13.676;100.700;2023-08-06T09:18:44;7.13;;;2.90;;
81807;SDS011;71241;13.676;100.700;2023-08-06T09:21:15;11.02;;;3.85;;
81807;SDS011;71241;13.676;100.700;2023-08-06T09:23:46;7.20;;;2.72;;
81807;SDS011;71241;13.676;100.700;2023-08-06T09:26:18;6.40;;;3.50;;
81807;SDS011;71241;13.676;100.700;2023-08-06T09:28:49;6.03;;;2.47;;
81807;SDS011;71241;13.676;100.700;2023-08-06T09:31:23;8.73;;;2.72;;
81807;SDS011;71241;13.676;100.700;2023-08-06T09:33:53;10.50;;;3.28;;
81807;SDS011;71241;13.676;100.700;2023-08-06T09:36:24;5.18;;;2.42;;
81807;SDS011;71241;13.676;100.700;2023-08-06T09:38:57;5.07;;;2.40;;
81807;SDS011;71241;13.676;100.700;2023-08-06T09:41:29;8.52;;;2.65;;
81807;SDS011;71241;13.676;100.700;2023-08-06T09:44:00;6.75;;;2.90;;
81807;SDS011;71241;13.676;100.700;2023-08-06T09:46:31;7.50;;;2.63;;
81807;SDS011;71241;13.676;100.700;2023-08-06T09:49:02;8.68;;;3.22;;
81807;SDS011;71241;13.676;100.700;2023-08-06T09:51:37;7.95;;;2.55;;
81807;SDS011;71241;13.676;100.700;2023-08-06T09:54:09;9.68;;;2.53;;
81807;SDS011;71241;13.676;100.700;2023-08-06T09:56:56;7.95;;;2.60;;
81807;SDS011;71241;13.676;100.700;2023-08-06T09:59:27;6.55;;;2.17;;
81807;SDS011;71241;13.676;100.700;2023-08-06T10:01:59;6.47;;;2.20;;
81807;SDS011;71241;13.676;100.700;2023-08-06T10:04:30;10.48;;;2.45;;
81807;SDS011;71241;13.676;100.700;2023-08-06T10:07:08;7.28;;;2.00;;
81807;SDS011;71241;13.676;100.700;2023-08-06T10:09:39;5.25;;;2.10;;
81807;SDS011;71241;13.676;100.700;2023-08-06T10:12:12;5.40;;;2.20;;
81807;SDS011;71241;13.676;100.700;2023-08-06T10:14:43;7.55;;;2.58;;
81807;SDS011;71241;13.676;100.700;2023-08-06T10:17:14;6.50;;;2.20;;
81807;SDS011;71241;13.676;100.700;2023-08-06T10:19:46;6.80;;;2.10;;
81807;SDS011;71241;13.676;100.700;2023-08-06T10:22:18;6.22;;;2.20;;
81807;SDS011;71241;13.676;100.700;2023-08-06T10:24:49;7.18;;;2.67;;
81807;SDS011;71241;13.676;100.700;2023-08-06T10:27:27;4.72;;;2.50;;
81807;SDS011;71241;13.676;100.700;2023-08-06T10:32:52;5.05;;;2.83;;
81807;SDS011;71241;13.676;100.700;2023-08-06T10:35:30;5.72;;;2.67;;
81807;SDS011;71241;13.676;100.700;2023-08-06T10:38:05;6.50;;;4.97;;
81807;SDS011;71241;13.676;100.700;2023-08-06T10:40:39;5.03;;;3.08;;
81807;SDS011;71241;13.676;100.700;2023-08-06T10:43:24;7.68;;;2.83;;
81807;SDS011;71241;13.676;100.700;2023-08-06T10:45:56;5.68;;;2.17;;
81807;SDS011;71241;13.676;100.700;2023-08-06T10:48:31;5.55;;;2.97;;
81807;SDS011;71241;13.676;100.700;2023-08-06T10:51:07;8.95;;;2.80;;
81807;SDS011;71241;13.676;100.700;2023-08-06T10:53:41;5.65;;;2.60;;
81807;SDS011;71241;13.676;100.700;2023-08-06T10:56:13;8.10;;;2.60;;
81807;SDS011;71241;13.676;100.700;2023-08-06T10:58:46;4.95;;;2.47;;
81807;SDS011;71241;13.676;100.700;2023-08-06T11:01:17;8.27;;;2.78;;
81807;SDS011;71241;13.676;100.700;2023-08-06T11:03:48;5.65;;;2.38;;
81807;SDS011;71241;13.676;100.700;2023-08-06T11:06:20;8.82;;;2.90;;
81807;SDS011;71241;13.676;100.700;2023-08-06T11:08:52;5.10;;;2.45;;
81807;SDS011;71241;13.676;100.700;2023-08-06T11:11:23;8.20;;;2.70;;
81807;SDS011;71241;13.676;100.700;2023-08-06T11:13:56;5.85;;;2.28;;
81807;SDS011;71241;13.676;100.700;2023-08-06T11:18:56;6.85;;;2.75;;
81807;SDS011;71241;13.676;100.700;2023-08-06T11:21:29;7.18;;;2.75;;
81807;SDS011;71241;13.676;100.700;2023-08-06T11:24:00;5.95;;;2.90;;
81807;SDS011;71241;13.676;100.700;2023-08-06T11:26:31;8.25;;;3.28;;
81807;SDS011;71241;13.676;100.700;2023-08-06T11:29:04;6.55;;;2.60;;
81807;SDS011;71241;13.676;100.700;2023-08-06T11:31:35;8.82;;;3.10;;
81807;SDS011;71241;13.676;100.700;2023-08-06T11:34:06;6.10;;;3.47;;
81807;SDS011;71241;13.676;100.700;2023-08-06T11:36:40;8.77;;;3.42;;
81807;SDS011;71241;13.676;100.700;2023-08-06T11:39:11;7.40;;;3.03;;
81807;SDS011;71241;13.676;100.700;2023-08-06T11:41:42;7.20;;;3.10;;
81807;SDS011;71241;13.676;100.700;2023-08-06T11:44:15;7.43;;;3.45;;
81807;SDS011;71241;13.676;100.700;2023-08-06T11:46:52;7.40;;;3.72;;
81807;SDS011;71241;13.676;100.700;2023-08-06T11:49:37;7.78;;;3.03;;
81807;SDS011;71241;13.676;100.700;2023-08-06T11:52:11;7.97;;;3.03;;
81807;SDS011;71241;13.676;100.700;2023-08-06T11:54:44;5.78;;;2.55;;
81807;SDS011;71241;13.676;100.700;2023-08-06T11:57:16;7.45;;;2.72;;
81807;SDS011;71241;13.676;100.700;2023-08-06T11:59:49;10.07;;;2.97;;
81807;SDS011;71241;13.676;100.700;2023-08-06T12:02:20;9.07;;;3.58;;
81807;SDS011;71241;13.676;100.700;2023-08-06T12:05:03;6.70;;;2.85;;
81807;SDS011;71241;13.676;100.700;2023-08-06T12:07:36;7.28;;;3.13;;
81807;SDS011;71241;13.676;100.700;2023-08-06T12:10:08;7.35;;;2.60;;
81807;SDS011;71241;13.676;100.700;2023-08-06T12:12:39;6.75;;;3.45;;
81807;SDS011;71241;13.676;100.700;2023-08-06T12:15:11;9.35;;;2.65;;
81807;SDS011;71241;13.676;100.700;2023-08-06T12:17:42;4.32;;;2.28;;
81807;SDS011;71241;13.676;100.700;2023-08-06T12:20:13;5.35;;;2.33;;
81807;SDS011;71241;13.676;100.700;2023-08-06T12:22:44;8.70;;;2.60;;
81807;SDS011;71241;13.676;100.700;2023-08-06T12:25:15;7.70;;;2.72;;
81807;SDS011;71241;13.676;100.700;2023-08-06T12:27:47;6.72;;;2.50;;
81807;SDS011;71241;13.676;100.700;2023-08-06T12:30:19;7.55;;;2.78;;
81807;SDS011;71241;13.676;100.700;2023-08-06T12:32:50;12.38;;;3.40;;
81807;SDS011;71241;13.676;100.700;2023-08-06T12:35:21;9.85;;;3.60;;
81807;SDS011;71241;13.676;100.700;2023-08-06T12:37:54;7.72;;;4.38;;
81807;SDS011;71241;13.676;100.700;2023-08-06T12:40:26;7.15;;;3.35;;
81807;SDS011;71241;13.676;100.700;2023-08-06T12:43:05;11.95;;;6.47;;
81807;SDS011;71241;13.676;100.700;2023-08-06T12:45:37;9.30;;;3.65;;
81807;SDS011;71241;13.676;100.700;2023-08-06T12:50:38;9.40;;;3.40;;
81807;SDS011;71241;13.676;100.700;2023-08-06T12:53:10;9.77;;;3.95;;
81807;SDS011;71241;13.676;100.700;2023-08-06T12:55:41;9.77;;;4.07;;
81807;SDS011;71241;13.676;100.700;2023-08-06T12:58:12;9.57;;;3.45;;
81807;SDS011;71241;13.676;100.700;2023-08-06T13:00:45;6.18;;;3.40;;
81807;SDS011;71241;13.676;100.700;2023-08-06T13:03:16;10.10;;;3.63;;
81807;SDS011;71241;13.676;100.700;2023-08-06T13:05:47;7.85;;;4.15;;
81807;SDS011;71241;13.676;100.700;2023-08-06T13:08:18;7.43;;;3.67;;
81807;SDS011;71241;13.676;100.700;2023-08-06T13:10:48;7.55;;;3.75;;
81807;SDS011;71241;13.676;100.700;2023-08-06T13:13:19;8.23;;;3.63;;
81807;SDS011;71241;13.676;100.700;2023-08-06T13:15:52;7.70;;;3.40;;
81807;SDS011;71241;13.676;100.700;2023-08-06T13:18:23;11.50;;;4.32;;
81807;SDS011;71241;13.676;100.700;2023-08-06T13:20:54;8.75;;;5.20;;
81807;SDS011;71241;13.676;100.700;2023-08-06T13:23:25;12.02;;;7.93;;
81807;SDS011;71241;13.676;100.700;2023-08-06T13:25:56;9.98;;;4.40;;
81807;SDS011;71241;13.676;100.700;2023-08-06T13:28:27;8.82;;;4.68;;
81807;SDS011;71241;13.676;100.700;2023-08-06T13:31:01;8.57;;;3.72;;
81807;SDS011;71241;13.676;100.700;2023-08-06T13:33:32;12.43;;;3.92;;
81807;SDS011;71241;13.676;100.700;2023-08-06T13:36:03;10.05;;;3.40;;
81807;SDS011;71241;13.676;100.700;2023-08-06T13:38:34;6.30;;;3.00;;
81807;SDS011;71241;13.676;100.700;2023-08-06T13:41:05;9.10;;;3.45;;
81807;SDS011;71241;13.676;100.700;2023-08-06T13:43:37;7.28;;;3.33;;
81807;SDS011;71241;13.676;100.700;2023-08-06T13:46:10;4.90;;;2.65;;
81807;SDS011;71241;13.676;100.700;2023-08-06T13:48:46;8.68;;;2.97;;
81807;SDS011;71241;13.676;100.700;2023-08-06T13:51:20;7.80;;;4.07;;
81807;SDS011;71241;13.676;100.700;2023-08-06T13:53:51;7.00;;;3.05;;
81807;SDS011;71241;13.676;100.700;2023-08-06T13:56:23;8.30;;;2.83;;
81807;SDS011;71241;13.676;100.700;2023-08-06T13:58:54;7.10;;;3.40;;
81807;SDS011;71241;13.676;100.700;2023-08-06T14:01:27;6.65;;;2.65;;
81807;SDS011;71241;13.676;100.700;2023-08-06T14:04:17;7.57;;;2.47;;
81807;SDS011;71241;13.676;100.700;2023-08-06T14:06:49;6.43;;;2.90;;
81807;SDS011;71241;13.676;100.700;2023-08-06T14:09:20;10.02;;;2.75;;
81807;SDS011;71241;13.676;100.700;2023-08-06T14:11:52;9.38;;;2.85;;
81807;SDS011;71241;13.676;100.700;2023-08-06T14:14:23;6.97;;;3.25;;
81807;SDS011;71241;13.676;100.700;2023-08-06T14:16:58;7.72;;;3.13;;
81807;SDS011;71241;13.676;100.700;2023-08-06T14:19:29;4.20;;;2.88;;
81807;SDS011;71241;13.676;100.700;2023-08-06T14:22:01;5.72;;;2.45;;
81807;SDS011;71241;13.676;100.700;2023-08-06T14:24:34;4.07;;;3.22;;
81807;SDS011;71241;13.676;100.700;2023-08-06T14:27:05;5.60;;;3.08;;
81807;SDS011;71241;13.676;100.700;2023-08-06T14:29:36;10.07;;;3.50;;
81807;SDS011;71241;13.676;100.700;2023-08-06T14:32:09;5.43;;;3.38;;
81807;SDS011;71241;13.676;100.700;2023-08-06T14:37:10;10.43;;;4.35;;
81807;SDS011;71241;13.676;100.700;2023-08-06T14:39:41;7.68;;;4.55;;
81807;SDS011;71241;13.676;100.700;2023-08-06T14:42:12;10.70;;;4.60;;
81807;SDS011;71241;13.676;100.700;2023-08-06T14:44:43;7.35;;;3.63;;
81807;SDS011;71241;13.676;100.700;2023-08-06T14:47:15;8.82;;;3.40;;
81807;SDS011;71241;13.676;100.700;2023-08-06T14:49:46;6.68;;;3.78;;
81807;SDS011;71241;13.676;100.700;2023-08-06T14:52:18;5.25;;;3.67;;
81807;SDS011;71241;13.676;100.700;2023-08-06T14:54:49;10.90;;;3.63;;
81807;SDS011;71241;13.676;100.700;2023-08-06T14:57:21;7.05;;;3.42;;
81807;SDS011;71241;13.676;100.700;2023-08-06T14:59:56;10.00;;;3.33;;
81807;SDS011;71241;13.676;100.700;2023-08-06T15:02:29;11.13;;;3.53;;
81807;SDS011;71241;13.676;100.700;2023-08-06T15:05:00;7.65;;;3.47;;
81807;SDS011;71241;13.676;100.700;2023-08-06T15:07:32;10.15;;;3.88;;
81807;SDS011;71241;13.676;100.700;2023-08-06T15:10:05;6.50;;;3.88;;
81807;SDS011;71241;13.676;100.700;2023-08-06T15:12:40;9.05;;;3.92;;
81807;SDS011;71241;13.676;100.700;2023-08-06T15:15:11;7.90;;;4.82;;